Koh Tao, Thailand

2:59 PM +07 on July 24, 2017 (GMT +0700)
Chalok Baan Kao, Koh Tao | | Change Station

Elev 92 ft 10.07 °N, 99.83 °E | Updated 1 minute ago

Mostly Cloudy
Mostly Cloudy
87.1 °F
Feels Like 98 °F
N
2.6
Wind Variable Wind from South

Today
High -- | Low -- °F
--% Chance of Precip.
Yesterday
High -- | Low -- °F
Precip. -- in
Pressure 29.77 in
Visibility 6.2 miles
Clouds Few 2000 ft
Heat Index 98 °F
Dew Point 77 °F
Humidity 71%
Rainfall 0.00 in
Snow Depth Not available.
6:08 AM 6:45 PM
New Moon, 1% visible
METAR VTSM 240730Z 26006KT 9999 FEW020 32/24 Q1008
Pressure 29.77 in
Visibility 6.2 miles
Clouds Few 2000 ft
Heat Index 98 °F
Dew Point 77 °F
Humidity 71%
Rainfall 0.00 in
Snow Depth Not available.
6:08 AM 6:45 PM
New Moon, 1% visible
METAR VTSM 240730Z 26006KT 9999 FEW020 32/24 Q1008

Get Severe Weather Alerts

Thanks for signing up!

Be on the lookout for a verification email in your inbox.

You'll start receiving the daily forecast at 6 AM.

×

10-Day Weather Forecast

No radar image for this location.
×

Almanac

Astronomy

Jul. 24, 2017 Rise Set
Actual Time
Civil Twilight
Nautical Twilight
Astronomical Twilight
Moon
Length of Visible Light
Length of Day
Tomorrow will be .
, % of the Moon is Illuminated

Today's Extremes

Country Highs Country Lows

Community

WunderPhotos

Category 6

Welcome to Category 6. This is the collective home for Weather Underground's featured writeups by Dr. Jeff Masters (right), Bob Henson (left), Chris Burt, and other regular contributors.

Nearby

Air Quality

  Air Quality AQ Index Pollutant
Not available.

Snow Depth

Station Depth Elevation

Earthquake Activity

City Distance Mag. Time & Date
Minimum magnitude displayed is 2.5.

Coastal Water Temperatures

Place Temperature

Stations

Nearby Weather Stations

Station Location Temp. Windchill Dew Point Humidity Wind Precip. Elev Updated Type